^^
Datos históricos de la estación: Murcia-Puente Tocinos
Diario Informe para Noviembre 18, 2019 Unidades:  Ambas    Ingés   Métrico
Diario Semanal Mensual Anual
  Máxima: Mínima: Promedio:
Temperatura: 60.4 °F /  15.8 °C 49.6 °F /  9.8 °C 53.8 °F /  12.1 °C
Punto de rocio: 49.8 °F /  9.9 °C 34.2 °F /  1.2 °C 41 °F /  5 °C
Humedad: 94% 40.6% 65%
Velocidad viento: 17mph /  27.4km/h - 6.2mph /  9.9km/h
Racha viento: 31.1mph /  50.1km/h - -
Viento- - SO
Presión: 30 in /  1016.1 hPa 29.7 in /  1006.7 hPa -
Precipitación: 0.2 in /  5.1 mm    
 
 
Tabla de datos para Noviembre 18, 2019
Hora Temperatura Punto de rocio Presión Viento Velocidad viento Racha viento Humedad Intensidad lluvia(por hora) Nubes
00:04 52.3 °F /  11.3 °C 42.8 °F /  6 °C 29.8in /  1008.3hPa NO 1.9mph /  3km/h 3mph /  4.8km/h 70% 0in /  0.0mm
00:09 52.3 °F /  11.3 °C 42.8 °F /  6 °C 29.8in /  1008.4hPa NO 1.8mph /  2.9km/h 2.4mph /  3.9km/h 70% 0in /  0.0mm
00:14 52.3 °F /  11.3 °C 43 °F /  6.1 °C 29.8in /  1008.4hPa NO 1.6mph /  2.5km/h 2mph /  3.2km/h 70.5% 0in /  0.0mm
00:19 52.5 °F /  11.4 °C 43.3 °F /  6.3 °C 29.8in /  1008.4hPa NO 1.4mph /  2.2km/h   71% 0in /  0.0mm
00:24 52.5 °F /  11.4 °C 43.7 °F /  6.5 °C 29.8in /  1008.4hPa NO 0.5mph /  0.8km/h 3.1mph /  5km/h 71.6% 0in /  0.0mm
00:29 52.5 °F /  11.4 °C 44.1 °F /  6.7 °C 29.8in /  1008.2hPa Calm   3.6mph /  5.8km/h 72.7% 0in /  0.0mm
00:34 52.5 °F /  11.4 °C 44.1 °F /  6.7 °C 29.8in /  1008.2hPa NO 1.3mph /  2.1km/h 4mph /  6.4km/h 73% 0.02in /  0.5mm
00:39 52.3 °F /  11.3 °C 44.1 °F /  6.7 °C 29.8in /  1008.2hPa North 2mph /  3.2km/h 4.6mph /  7.4km/h 73.3% 0.02in /  0.5mm
00:44 52.2 °F /  11.2 °C 44.6 °F /  7 °C 29.8in /  1007.9hPa Este 1.9mph /  3km/h 5.2mph /  8.4km/h 75.2% 0.02in /  0.5mm
00:49 52.2 °F /  11.2 °C 45.1 °F /  7.3 °C 29.8in /  1007.9hPa ESE 1.8mph /  2.9km/h 5mph /  8km/h 76.9% 0.02in /  0.5mm
00:54 52 °F /  11.1 °C 45 °F /  7.2 °C 29.8in /  1007.9hPa ESE 2.7mph /  4.3km/h 5.8mph /  9.3km/h 77.3% 0.02in /  0.5mm
00:59 51.6 °F /  10.9 °C 45.1 °F /  7.3 °C 29.8in /  1007.5hPa Este 3.1mph /  5km/h 6mph /  9.7km/h 78.4% 0.02in /  0.5mm
01:04 51.4 °F /  10.8 °C 44.8 °F /  7.1 °C 29.8in /  1007.5hPa Este 2.6mph /  4.2km/h 5mph /  8km/h 78% 0.02in /  0.5mm
01:09 51.4 °F /  10.8 °C 45.1 °F /  7.3 °C 29.8in /  1007.7hPa ENE 2.4mph /  3.9km/h 4.6mph /  7.4km/h 79% 0.02in /  0.5mm
01:14 51.4 °F /  10.8 °C 45.3 °F /  7.4 °C 29.8in /  1007.7hPa NO 2mph /  3.2km/h 6.9mph /  11.1km/h 79.6% 0.02in /  0.5mm
01:19 51.3 °F /  10.7 °C 45.3 °F /  7.4 °C 29.8in /  1007.7hPa NNO 1.8mph /  2.9km/h 7mph /  11.3km/h 80.5% 0.02in /  0.5mm
01:24 50.9 °F /  10.5 °C 45.7 °F /  7.6 °C 29.8in /  1008.1hPa NO 2.7mph /  4.3km/h 5mph /  8km/h 81.7% 0.02in /  0.5mm
01:29 50.9 °F /  10.5 °C 45.9 °F /  7.7 °C 29.8in /  1008.1hPa North 3.1mph /  5km/h 5mph /  8km/h 82.6% 0.02in /  0.5mm
01:34 50.7 °F /  10.4 °C 45.7 °F /  7.6 °C 29.8in /  1008.1hPa NNE 3mph /  4.8km/h 5mph /  8km/h 83.1% 0.02in /  0.5mm
01:39 50.7 °F /  10.4 °C 46 °F /  7.8 °C 29.8in /  1008.1hPa NE 2.9mph /  4.7km/h 5.2mph /  8.4km/h 83.8% 0in /  0.0mm
01:44 50.5 °F /  10.3 °C 45.7 °F /  7.6 °C 29.8in /  1008.1hPa NE 3.4mph /  5.4km/h 6.9mph /  11.1km/h 83% 0in /  0.0mm
01:49 50.7 °F /  10.4 °C 45.5 °F /  7.5 °C 29.8in /  1008.1hPa ENE 3.6mph /  5.8km/h 7mph /  11.3km/h 82.4% 0in /  0.0mm
01:54 50.7 °F /  10.4 °C 45.5 °F /  7.5 °C 29.8in /  1008.1hPa NE 3.6mph /  5.8km/h 6mph /  9.7km/h 82% 0in /  0.0mm
01:59 51.1 °F /  10.6 °C 45.7 °F /  7.6 °C 29.8in /  1008.0hPa NE 3.6mph /  5.8km/h 5mph /  8km/h 82% 0in /  0.0mm
02:04 51.1 °F /  10.6 °C 45.9 °F /  7.7 °C 29.8in /  1008.0hPa NE 2.4mph /  3.8km/h 4mph /  6.4km/h 82% 0.01in /  0.3mm
02:09 51.1 °F /  10.6 °C 45.9 °F /  7.7 °C 29.8in /  1008.1hPa ESE 1.8mph /  2.9km/h 4.7mph /  7.6km/h 82.2% 0.03in /  0.8mm
02:14 50.9 °F /  10.5 °C 46 °F /  7.8 °C 29.8in /  1008.1hPa SE 2.2mph /  3.5km/h 5mph /  8km/h 83.2% 0.03in /  0.8mm
02:19 50.7 °F /  10.4 °C 46 °F /  7.8 °C 29.8in /  1008.1hPa SE 2.4mph /  3.9km/h 5mph /  8km/h 84% 0.03in /  0.8mm
02:24 50.5 °F /  10.3 °C 46.2 °F /  7.9 °C 29.8in /  1008.1hPa SE 2.4mph /  3.9km/h 5.8mph /  9.3km/h 85.3% 0.03in /  0.8mm
02:29 50.5 °F /  10.3 °C 46.6 °F /  8.1 °C 29.8in /  1007.6hPa SE 2.4mph /  3.9km/h 6mph /  9.7km/h 86% 0.03in /  0.8mm
02:34 50.5 °F /  10.3 °C 46.6 °F /  8.1 °C 29.8in /  1007.6hPa ESE 2.7mph /  4.4km/h 5mph /  8km/h 86.3% 0.03in /  0.8mm
02:39 50.5 °F /  10.3 °C 46.8 °F /  8.2 °C 29.8in /  1007.6hPa ESE 2.9mph /  4.7km/h 5.2mph /  8.4km/h 87% 0.03in /  0.8mm
02:44 50.5 °F /  10.3 °C 46.8 °F /  8.2 °C 29.8in /  1007.4hPa ESE 3mph /  4.9km/h 5mph /  8km/h 87% 0.03in /  0.8mm
02:49 50.5 °F /  10.3 °C 46.8 °F /  8.2 °C 29.8in /  1007.4hPa SE 3.1mph /  5km/h 5.2mph /  8.4km/h 87% 0.03in /  0.8mm
02:54 50.5 °F /  10.3 °C 46.8 °F /  8.2 °C 29.8in /  1007.5hPa SSE 2.7mph /  4.3km/h 5mph /  8km/h 87% 0.03in /  0.8mm
02:59 50.5 °F /  10.3 °C 46.8 °F /  8.2 °C 29.8in /  1007.5hPa Oeste 2.4mph /  3.9km/h 5.8mph /  9.3km/h 87% 0.03in /  0.8mm
03:04 50.5 °F /  10.3 °C 46.9 °F /  8.3 °C 29.8in /  1007.5hPa ONO 2.9mph /  4.6km/h 6mph /  9.7km/h 87.4% 0.02in /  0.5mm
03:09 50.5 °F /  10.3 °C 46.9 °F /  8.3 °C 29.8in /  1007.5hPa ONO 3.1mph /  5km/h 6mph /  9.7km/h 88% 0.03in /  0.8mm
03:14 50.4 °F /  10.2 °C 46.9 °F /  8.3 °C 29.8in /  1007.5hPa NO 3.4mph /  5.5km/h 7.4mph /  11.9km/h 88% 0.02in /  0.5mm
03:19 50.2 °F /  10.1 °C 47.1 °F /  8.4 °C 29.8in /  1007.5hPa NO 3.6mph /  5.8km/h 7mph /  11.3km/h 88.9% 0.02in /  0.5mm
03:24 50.2 °F /  10.1 °C 46.9 °F /  8.3 °C 29.8in /  1007.5hPa ONO 4mph /  6.5km/h 7mph /  11.3km/h 89% 0.02in /  0.5mm
03:29 50 °F /  10 °C 47.1 °F /  8.4 °C 29.7in /  1007.3hPa Oeste 4.3mph /  6.9km/h 7mph /  11.3km/h 89.6% 0.02in /  0.5mm
03:34 50 °F /  10 °C 47.3 °F /  8.5 °C 29.7in /  1007.3hPa ONO 4.3mph /  6.9km/h 7mph /  11.3km/h 90% 0.03in /  0.7mm
03:39 50.2 °F /  10.1 °C 47.5 °F /  8.6 °C 29.8in /  1007.4hPa ONO 4.3mph /  6.9km/h 7.4mph /  11.9km/h 90% 0.04in /  1.0mm
03:44 50.4 °F /  10.2 °C 47.7 °F /  8.7 °C 29.8in /  1007.4hPa Oeste 4.6mph /  7.4km/h 9.2mph /  14.8km/h 90.6% 0.04in /  1.0mm
03:49 50.5 °F /  10.3 °C 48 °F /  8.9 °C 29.8in /  1007.4hPa Oeste 4.7mph /  7.6km/h 9mph /  14.5km/h 91% 0.07in /  1.8mm
03:54 50.7 °F /  10.4 °C 48.2 °F /  9 °C 29.8in /  1007.7hPa Oeste 4.7mph /  7.6km/h 9mph /  14.5km/h 91% 0.08in /  2.0mm
03:59 50.7 °F /  10.4 °C 48.4 °F /  9.1 °C 29.8in /  1007.7hPa SSO 4.7mph /  7.6km/h 6.2mph /  10km/h 91.8% 0.08in /  2.0mm
04:04 50.9 °F /  10.5 °C 48.7 °F /  9.3 °C 29.8in /  1007.7hPa SSO 3.6mph /  5.8km/h 6.2mph /  10km/h 92% 0.09in /  2.3mm
04:09 50.9 °F /  10.5 °C 48.7 °F /  9.3 °C 29.8in /  1007.7hPa SSE 3.1mph /  5km/h 8.1mph /  13km/h 92% 0.07in /  1.8mm
04:14 50.9 °F /  10.5 °C 48.7 °F /  9.3 °C 29.8in /  1007.7hPa SSE 4.5mph /  7.2km/h 10.7mph /  17.2km/h 92% 0.08in /  2.0mm
04:19 50.5 °F /  10.3 °C 48.4 °F /  9.1 °C 29.8in /  1007.7hPa SSE 5.2mph /  8.4km/h 13.8mph /  22.2km/h 92% 0.08in /  2.0mm
04:24 50.4 °F /  10.2 °C 48.2 °F /  9 °C 29.8in /  1007.7hPa Sur 7.1mph /  11.4km/h 14mph /  22.5km/h 92.2% 0.08in /  2.0mm
04:29 50.4 °F /  10.2 °C 48.4 °F /  9.1 °C 29.8in /  1007.6hPa Sur 8.1mph /  13km/h 13mph /  20.9km/h 93% 0.09in /  2.3mm
04:34 50.4 °F /  10.2 °C 48.4 °F /  9.1 °C 29.8in /  1007.6hPa Sur 7.3mph /  11.8km/h 10mph /  16.1km/h 93% 0.09in /  2.3mm
04:39 50.4 °F /  10.2 °C 48.4 °F /  9.1 °C 29.8in /  1007.6hPa Sur 6.9mph /  11.1km/h 9.7mph /  15.6km/h 93% 0.08in /  2.1mm
04:44 50.5 °F /  10.3 °C 48.9 °F /  9.4 °C 29.8in /  1007.6hPa SSO 6.3mph /  10.1km/h 14.5mph /  23.3km/h 93.8% 0.08in /  2.1mm
04:49 50.7 °F /  10.4 °C 49.1 °F /  9.5 °C 29.8in /  1007.6hPa SSO 5.9mph /  9.5km/h 15mph /  24.1km/h 94% 0.09in /  2.3mm
04:54 51.1 °F /  10.6 °C 49.5 °F /  9.7 °C 29.8in /  1007.6hPa SSO 7.7mph /  12.4km/h 15mph /  24.1km/h 94% 0.07in /  1.8mm
04:59 51.3 °F /  10.7 °C 49.6 °F /  9.8 °C 29.8in /  1007.6hPa SSO 8.7mph /  14km/h 16.3mph /  26.2km/h 94% 0.06in /  1.6mm
05:04 51.4 °F /  10.8 °C 49.8 °F /  9.9 °C 29.8in /  1007.6hPa SSO 8.7mph /  14km/h 16mph /  25.7km/h 94% 0.06in /  1.6mm
05:09 51.4 °F /  10.8 °C 49.8 °F /  9.9 °C 29.8in /  1007.6hPa SSO 8.7mph /  14km/h 15mph /  24.1km/h 94% 0.06in /  1.5mm
05:14 51.6 °F /  10.9 °C 49.8 °F /  9.9 °C 29.8in /  1007.5hPa SSO 9mph /  14.5km/h 15mph /  24.1km/h 94% 0.06in /  1.5mm
05:19 51.6 °F /  10.9 °C 49.8 °F /  9.9 °C 29.8in /  1007.5hPa SO 9.2mph /  14.8km/h 15mph /  24.1km/h 93.2% 0.05in /  1.3mm
05:24 51.6 °F /  10.9 °C 49.6 °F /  9.8 °C 29.8in /  1007.5hPa SO 8.9mph /  14.3km/h 15mph /  24.1km/h 93% 0.05in /  1.3mm
05:29 51.4 °F /  10.8 °C 49.3 °F /  9.6 °C 29.7in /  1007.3hPa SO 8.7mph /  14km/h 15.2mph /  24.5km/h 92.4% 0.04in /  1.0mm
05:34 51.6 °F /  10.9 °C 49.3 °F /  9.6 °C 29.7in /  1007.3hPa SO 8mph /  12.9km/h 15mph /  24.1km/h 92% 0.04in /  1.0mm
05:39 51.6 °F /  10.9 °C 49.3 °F /  9.6 °C 29.7in /  1007.3hPa SO 7.6mph /  12.2km/h 11mph /  17.7km/h 91.5% 0.04in /  1.0mm
05:44 51.4 °F /  10.8 °C 48.9 °F /  9.4 °C 29.7in /  1007.3hPa SSO 6.5mph /  10.5km/h 9mph /  14.5km/h 91% 0.03in /  0.7mm
05:49 51.4 °F /  10.8 °C 48.7 °F /  9.3 °C 29.7in /  1007.3hPa SO 5.9mph /  9.5km/h 9.2mph /  14.8km/h 90.7% 0.02in /  0.5mm
05:54 51.4 °F /  10.8 °C 48.6 °F /  9.2 °C 29.7in /  1007.3hPa SO 5.6mph /  9km/h 10.7mph /  17.2km/h 90% 0.01in /  0.2mm
05:59 51.4 °F /  10.8 °C 48.6 °F /  9.2 °C 29.7in /  1006.7hPa SO 5.4mph /  8.7km/h 11mph /  17.7km/h 90% 0.01in /  0.2mm
06:04 51.4 °F /  10.8 °C 48.4 °F /  9.1 °C 29.7in /  1006.7hPa SO 6mph /  9.6km/h 10.4mph /  16.7km/h 89% 0.01in /  0.2mm
06:09 51.4 °F /  10.8 °C 48.2 °F /  9 °C 29.8in /  1007.4hPa SSO 6.2mph /  10km/h 10.7mph /  17.2km/h 88.5% 0.01in /  0.2mm
06:14 51.4 °F /  10.8 °C 48 °F /  8.9 °C 29.8in /  1007.4hPa SSE 6.2mph /  10km/h 11mph /  17.7km/h 88% 0in /  0.0mm
06:19 51.4 °F /  10.8 °C 48 °F /  8.9 °C 29.8in /  1007.4hPa SO 6.2mph /  10km/h 8.1mph /  13km/h 88% 0in /  0.0mm
06:24 51.4 °F /  10.8 °C 48 °F /  8.9 °C 29.8in /  1007.4hPa OSO 5.5mph /  8.9km/h 8.1mph /  13km/h 88% 0in /  0.0mm
06:29 51.4 °F /  10.8 °C 47.8 °F /  8.8 °C 29.7in /  1007.0hPa NNO 5.2mph /  8.4km/h 8.1mph /  13km/h 87.9% 0in /  0.0mm
06:34 51.3 °F /  10.7 °C 47.7 °F /  8.7 °C 29.7in /  1007.0hPa North 4.1mph /  6.6km/h 6.4mph /  10.3km/h 87.7% 0in /  0.0mm
06:39 51.3 °F /  10.7 °C 47.8 °F /  8.8 °C 29.7in /  1007.0hPa OSO 3.6mph /  5.8km/h 9.2mph /  14.8km/h 88% 0in /  0.0mm
06:44 51.1 °F /  10.6 °C 47.7 °F /  8.7 °C 29.7in /  1006.8hPa OSO 4.7mph /  7.5km/h 12.7mph /  20.4km/h 87.9% 0in /  0.0mm
06:49 51.3 °F /  10.7 °C 47.5 °F /  8.6 °C 29.7in /  1006.8hPa SO 5.2mph /  8.4km/h 13mph /  20.9km/h 87% 0in /  0.0mm
06:54 51.3 °F /  10.7 °C 47.5 °F /  8.6 °C 29.7in /  1007.0hPa SO 5.7mph /  9.1km/h 9.2mph /  14.8km/h 87% 0in /  0.0mm
06:59 51.3 °F /  10.7 °C 47.3 °F /  8.5 °C 29.7in /  1007.0hPa SSO 5.9mph /  9.5km/h 10.4mph /  16.7km/h 86.1% 0in /  0.0mm
07:04 51.4 °F /  10.8 °C 47.1 °F /  8.4 °C 29.7in /  1007.0hPa SSO 6.6mph /  10.6km/h 10.4mph /  16.7km/h 84.8% 0in /  0.0mm
07:09 51.4 °F /  10.8 °C 46.8 °F /  8.2 °C 29.8in /  1007.9hPa SSO 6.9mph /  11.1km/h 10mph /  16.1km/h 83.7% 0in /  0.0mm
07:14 51.6 °F /  10.9 °C 46.6 °F /  8.1 °C 29.8in /  1007.9hPa SSO 5.4mph /  8.7km/h 8.1mph /  13km/h 83% 0in /  0.0mm
07:19 51.6 °F /  10.9 °C 46.6 °F /  8.1 °C 29.8in /  1007.9hPa SSO 4.7mph /  7.6km/h 8.1mph /  13km/h 83% 0in /  0.0mm
07:24 51.6 °F /  10.9 °C 46.4 °F /  8 °C 29.8in /  1007.9hPa SO 4.4mph /  7.1km/h 7.6mph /  12.2km/h 82.4% 0in /  0.0mm
07:29 51.6 °F /  10.9 °C 46 °F /  7.8 °C 29.8in /  1007.4hPa OSO 4.3mph /  6.9km/h 11.8mph /  19km/h 81.2% 0in /  0.0mm
07:34 52 °F /  11.1 °C 45.5 °F /  7.5 °C 29.8in /  1007.4hPa OSO 5.3mph /  8.6km/h 13mph /  20.9km/h 78.8% 0in /  0.0mm
07:39 52.2 °F /  11.2 °C 45.1 °F /  7.3 °C 29.8in /  1007.7hPa Oeste 5.9mph /  9.5km/h 15.2mph /  24.5km/h 76.6% 0in /  0.0mm
07:44 52.3 °F /  11.3 °C 44.6 °F /  7 °C 29.8in /  1007.7hPa Oeste 6.9mph /  11.1km/h 16.3mph /  26.2km/h 74.7% 0in /  0.0mm
07:49 52.5 °F /  11.4 °C 44.4 °F /  6.9 °C 29.8in /  1007.7hPa OSO 7.4mph /  11.9km/h 16mph /  25.7km/h 73.6% 0in /  0.0mm
07:54 52.5 °F /  11.4 °C 44.2 °F /  6.8 °C 29.8in /  1007.7hPa OSO 8.1mph /  13.1km/h 14mph /  22.5km/h 73% 0in /  0.0mm
07:56 52.7 °F /  11.5 °C 44.1 °F /  6.7 °C 29.8in /  1007.6hPa OSO 8.5mph /  13.7km/h 14mph /  22.5km/h 72.4% 0in /  0.0mm
14:29 59.9 °F /  15.5 °C 38.5 °F /  3.6 °C 29.8in /  1010.4hPa NO 12.3mph /  19.8km/h 16.3mph /  26.2km/h 45% 0in /  0.0mm
14:34 60.1 °F /  15.6 °C 38.8 °F /  3.8 °C 29.8in /  1010.4hPa NO 11.4mph /  18.3km/h 21.9mph /  35.2km/h 45.3% 0in /  0.0mm
14:39 60.1 °F /  15.6 °C 38.7 °F /  3.7 °C 29.8in /  1010.4hPa NO 10.7mph /  17.2km/h 22mph /  35.4km/h 45% 0in /  0.0mm
14:44 60.3 °F /  15.7 °C 38.8 °F /  3.8 °C 29.8in /  1010.3hPa ONO 10.7mph /  17.2km/h 23.5mph /  37.8km/h 45% 0in /  0.0mm
14:49 60.3 °F /  15.7 °C 38.1 °F /  3.4 °C 29.8in /  1010.3hPa NO 10.7mph /  17.2km/h 23mph /  37km/h 44% 0in /  0.0mm
14:54 60.3 °F /  15.7 °C 38.5 °F /  3.6 °C 29.8in /  1010.3hPa ONO 12.3mph /  19.8km/h 28.4mph /  45.7km/h 44.3% 0in /  0.0mm
14:59 60.4 °F /  15.8 °C 38.3 °F /  3.5 °C 29.8in /  1010.3hPa ONO 13.5mph /  21.7km/h 29mph /  46.7km/h 44% 0in /  0.0mm
15:04 60.3 °F /  15.7 °C 38.1 °F /  3.4 °C 29.8in /  1010.3hPa ONO 14.2mph /  22.9km/h 29mph /  46.7km/h 44% 0in /  0.0mm
15:09 60.3 °F /  15.7 °C 38.3 °F /  3.5 °C 29.8in /  1010.6hPa ONO 14.7mph /  23.7km/h 26mph /  41.8km/h 44.2% 0in /  0.0mm
15:14 60.3 °F /  15.7 °C 38.1 °F /  3.4 °C 29.8in /  1010.6hPa ONO 14.3mph /  23km/h 26.5mph /  42.6km/h 44% 0in /  0.0mm
15:19 60.4 °F /  15.8 °C 38.3 °F /  3.5 °C 29.8in /  1010.6hPa Oeste 14mph /  22.5km/h 26mph /  41.8km/h 44% 0in /  0.0mm
15:24 60.3 °F /  15.7 °C 38.1 °F /  3.4 °C 29.8in /  1010.6hPa ONO 13.7mph /  22.1km/h 25.3mph /  40.7km/h 43.9% 0in /  0.0mm
15:29 60.3 °F /  15.7 °C 37.9 °F /  3.3 °C 29.8in /  1010.6hPa ONO 13.5mph /  21.7km/h 25.3mph /  40.7km/h 43.6% 0in /  0.0mm
15:34 60.3 °F /  15.7 °C 37.6 °F /  3.1 °C 29.8in /  1010.6hPa ONO 13.5mph /  21.7km/h 26.1mph /  42km/h 43% 0in /  0.0mm
15:39 60.1 °F /  15.6 °C 37.6 °F /  3.1 °C 29.8in /  1010.7hPa ONO 13.5mph /  21.7km/h 26.5mph /  42.6km/h 43% 0in /  0.0mm
15:44 60.1 °F /  15.6 °C 37.4 °F /  3 °C 29.8in /  1010.7hPa ONO 14.7mph /  23.6km/h 26.5mph /  42.6km/h 43% 0in /  0.0mm
15:49 60.1 °F /  15.6 °C 37.6 °F /  3.1 °C 29.8in /  1010.7hPa ONO 15.6mph /  25.1km/h 26.5mph /  42.6km/h 43.3% 0in /  0.0mm
15:54 59.9 °F /  15.5 °C 37.4 °F /  3 °C 29.9in /  1010.8hPa Oeste 15.3mph /  24.7km/h 26mph /  41.8km/h 43.1% 0in /  0.0mm
15:59 59.7 °F /  15.4 °C 37.2 °F /  2.9 °C 29.9in /  1010.8hPa ONO 15.2mph /  24.5km/h 31.1mph /  50.1km/h 43% 0in /  0.0mm
16:04 59.7 °F /  15.4 °C 37.6 °F /  3.1 °C 29.9in /  1010.8hPa ONO 16.3mph /  26.2km/h 31mph /  49.9km/h 43.7% 0in /  0.0mm
16:09 59.7 °F /  15.4 °C 37.6 °F /  3.1 °C 29.9in /  1011.0hPa ONO 17mph /  27.4km/h 23mph /  37km/h 43.6% 0in /  0.0mm
16:14 59.7 °F /  15.4 °C 37.6 °F /  3.1 °C 29.9in /  1011.0hPa Oeste 15.3mph /  24.6km/h 23mph /  37km/h 43.8% 0in /  0.0mm
16:19 59.7 °F /  15.4 °C 37.6 °F /  3.1 °C 29.9in /  1011.0hPa Oeste 14mph /  22.5km/h 24.2mph /  38.9km/h 43.6% 0in /  0.0mm
16:24 59.7 °F /  15.4 °C 37.8 °F /  3.2 °C 29.9in /  1011.3hPa ONO 13.8mph /  22.2km/h 24mph /  38.6km/h 43.9% 0in /  0.0mm
16:29 59.7 °F /  15.4 °C 37.8 °F /  3.2 °C 29.9in /  1011.3hPa ONO 13.7mph /  22.1km/h 21mph /  33.8km/h 44% 0in /  0.0mm
16:34 59.7 °F /  15.4 °C 37.8 °F /  3.2 °C 29.9in /  1011.3hPa ONO 11.4mph /  18.4km/h 18mph /  29km/h 43.9% 0in /  0.0mm
16:39 59.7 °F /  15.4 °C 37.6 °F /  3.1 °C 29.9in /  1011.5hPa ONO 9.7mph /  15.6km/h 17.3mph /  27.8km/h 43.5% 0in /  0.0mm
16:44 59.9 °F /  15.5 °C 37.9 °F /  3.3 °C 29.9in /  1011.5hPa NO 9.4mph /  15.1km/h 15.2mph /  24.5km/h 44% 0in /  0.0mm
16:49 60.1 °F /  15.6 °C 37.6 °F /  3.1 °C 29.9in /  1011.5hPa ONO 9.2mph /  14.8km/h 20.7mph /  33.3km/h 43.3% 0in /  0.0mm
16:54 59.9 °F /  15.5 °C 36.7 °F /  2.6 °C 29.9in /  1011.8hPa ONO 10.1mph /  16.2km/h 26.5mph /  42.6km/h 41.8% 0in /  0.0mm
16:59 59.7 °F /  15.4 °C 36.1 °F /  2.3 °C 29.9in /  1011.8hPa ONO 10.7mph /  17.2km/h 26mph /  41.8km/h 41.3% 0in /  0.0mm
17:04 59.5 °F /  15.3 °C 35.6 °F /  2 °C 29.9in /  1011.8hPa ONO 11.6mph /  18.7km/h 21.3mph /  34.3km/h 40.6% 0in /  0.0mm
17:09 59.4 °F /  15.2 °C 35.6 °F /  2 °C 29.9in /  1012.2hPa ONO 12.3mph /  19.8km/h 21mph /  33.8km/h 41% 0in /  0.0mm
17:14 59.2 °F /  15.1 °C 35.4 °F /  1.9 °C 29.9in /  1012.2hPa ONO 11.1mph /  17.9km/h 19.7mph /  31.7km/h 41% 0in /  0.0mm
17:19 58.8 °F /  14.9 °C 35.2 °F /  1.8 °C 29.9in /  1012.2hPa Oeste 10.2mph /  16.4km/h 20mph /  32.2km/h 41% 0in /  0.0mm
17:24 58.6 °F /  14.8 °C 35.4 °F /  1.9 °C 29.9in /  1012.3hPa Oeste 10.7mph /  17.3km/h 20mph /  32.2km/h 41.6% 0in /  0.0mm
17:29 58.6 °F /  14.8 °C 35.6 °F /  2 °C 29.9in /  1012.3hPa Oeste 11.2mph /  18km/h 18.5mph /  29.8km/h 42% 0in /  0.0mm
17:34 58.5 °F /  14.7 °C 35.4 °F /  1.9 °C 29.9in /  1012.3hPa Oeste 9.6mph /  15.5km/h 21.3mph /  34.3km/h 42% 0in /  0.0mm
17:39 58.3 °F /  14.6 °C 35.2 °F /  1.8 °C 29.9in /  1012.3hPa Oeste 8.5mph /  13.7km/h 21mph /  33.8km/h 42% 0in /  0.0mm
17:44 57.9 °F /  14.4 °C 34.9 °F /  1.6 °C 29.9in /  1012.2hPa Oeste 10mph /  16.1km/h 21mph /  33.8km/h 42% 0in /  0.0mm
17:49 57.9 °F /  14.4 °C 34.9 °F /  1.6 °C 29.9in /  1012.2hPa Oeste 11.2mph /  18km/h 18.4mph /  29.6km/h 41.9% 0in /  0.0mm
17:54 57.7 °F /  14.3 °C 34.3 °F /  1.3 °C 29.9in /  1012.4hPa Oeste 10.9mph /  17.6km/h 24.2mph /  38.9km/h 41.1% 0in /  0.0mm
17:59 57.6 °F /  14.2 °C 34.3 °F /  1.3 °C 29.9in /  1012.4hPa Oeste 10.7mph /  17.2km/h 24.2mph /  38.9km/h 41.3% 0in /  0.0mm
18:04 57.6 °F /  14.2 °C 34.5 °F /  1.4 °C 29.9in /  1012.4hPa ONO 12.1mph /  19.4km/h 24mph /  38.6km/h 42% 0in /  0.0mm
18:09 57.4 °F /  14.1 °C 34.5 °F /  1.4 °C 29.9in /  1012.7hPa Oeste 13mph /  20.9km/h 19mph /  30.6km/h 42% 0in /  0.0mm
18:14 57.4 °F /  14.1 °C 34.5 °F /  1.4 °C 29.9in /  1012.7hPa Oeste 12.1mph /  19.4km/h 20.7mph /  33.3km/h 42% 0in /  0.0mm
18:19 57 °F /  13.9 °C 34.2 °F /  1.2 °C 29.9in /  1012.7hPa Oeste 11.4mph /  18.4km/h 21mph /  33.8km/h 42% 0in /  0.0mm
18:24 57 °F /  13.9 °C 34.3 °F /  1.3 °C 29.9in /  1012.9hPa Oeste 10.1mph /  16.3km/h 16mph /  25.7km/h 42.5% 0in /  0.0mm
18:29 56.8 °F /  13.8 °C 34.5 °F /  1.4 °C 29.9in /  1012.9hPa Oeste 9.2mph /  14.8km/h 15mph /  24.1km/h 43% 0in /  0.0mm
18:34 56.8 °F /  13.8 °C 34.5 °F /  1.4 °C 29.9in /  1012.9hPa Oeste 8.3mph /  13.4km/h 12.7mph /  20.4km/h 43% 0in /  0.0mm
18:39 56.7 °F /  13.7 °C 34.3 °F /  1.3 °C 29.9in /  1013.0hPa Oeste 7.6mph /  12.2km/h 14.5mph /  23.3km/h 43% 0in /  0.0mm
18:44 56.7 °F /  13.7 °C 34.3 °F /  1.3 °C 29.9in /  1013.0hPa OSO 7.9mph /  12.7km/h 15mph /  24.1km/h 43% 0in /  0.0mm
18:49 56.7 °F /  13.7 °C 34.3 °F /  1.3 °C 29.9in /  1013.0hPa Oeste 8.1mph /  13km/h 15mph /  24.1km/h 43% 0in /  0.0mm
18:54 56.5 °F /  13.6 °C 34.2 °F /  1.2 °C 29.9in /  1013.2hPa Oeste 7.1mph /  11.5km/h 13mph /  20.9km/h 43% 0in /  0.0mm
18:59 56.3 °F /  13.5 °C 34.3 °F /  1.3 °C 29.9in /  1013.2hPa Oeste 6.4mph /  10.3km/h 10.4mph /  16.7km/h 43.7% 0in /  0.0mm
19:04 56.1 °F /  13.4 °C 34.5 °F /  1.4 °C 29.9in /  1013.2hPa Oeste 6.4mph /  10.3km/h 10mph /  16.1km/h 44% 0in /  0.0mm
19:09 56.1 °F /  13.4 °C 34.3 °F /  1.3 °C 29.9in /  1013.4hPa Oeste 6.4mph /  10.3km/h 10.7mph /  17.2km/h 43.9% 0in /  0.0mm
19:14 55.9 °F /  13.3 °C 34.3 °F /  1.3 °C 29.9in /  1013.4hPa Oeste 5.4mph /  8.7km/h 11mph /  17.7km/h 44% 0in /  0.0mm
19:19 55.9 °F /  13.3 °C 34.3 °F /  1.3 °C 29.9in /  1013.4hPa Oeste 4.7mph /  7.6km/h 9mph /  14.5km/h 44% 0in /  0.0mm
19:24 55.8 °F /  13.2 °C 34.2 °F /  1.2 °C 29.9in /  1013.6hPa OSO 4.1mph /  6.6km/h 8mph /  12.9km/h 44% 0in /  0.0mm
19:29 55.8 °F /  13.2 °C 34.5 °F /  1.4 °C 29.9in /  1013.6hPa Oeste 3.6mph /  5.8km/h 7mph /  11.3km/h 44.8% 0in /  0.0mm
19:34 55.6 °F /  13.1 °C 34.5 °F /  1.4 °C 29.9in /  1013.6hPa Oeste 2.9mph /  4.7km/h 5mph /  8km/h 45% 0in /  0.0mm
19:39 55.4 °F /  13 °C 34.3 °F /  1.3 °C 29.9in /  1013.7hPa OSO 2.4mph /  3.9km/h 7.4mph /  11.9km/h 45% 0in /  0.0mm
19:44 55.2 °F /  12.9 °C 34.3 °F /  1.3 °C 29.9in /  1013.7hPa ONO 2.2mph /  3.5km/h 7mph /  11.3km/h 45.3% 0in /  0.0mm
19:49 55 °F /  12.8 °C 34.7 °F /  1.5 °C 29.9in /  1013.7hPa OSO 2mph /  3.2km/h 4.6mph /  7.4km/h 46% 0in /  0.0mm
19:54 54.9 °F /  12.7 °C 34.5 °F /  1.4 °C 29.9in /  1014.0hPa SO 2.2mph /  3.6km/h 5mph /  8km/h 46% 0in /  0.0mm
19:59 54.7 °F /  12.6 °C 34.9 °F /  1.6 °C 29.9in /  1014.0hPa SO 2.4mph /  3.9km/h 4mph /  6.4km/h 47% 0in /  0.0mm
20:04 54.7 °F /  12.6 °C 34.7 °F /  1.5 °C 29.9in /  1014.0hPa Sur 2.2mph /  3.5km/h 4.7mph /  7.6km/h 47% 0in /  0.0mm
20:09 54.5 °F /  12.5 °C 34.9 °F /  1.6 °C 30in /  1014.2hPa SSE 2mph /  3.2km/h 6.9mph /  11.1km/h 47.2% 0in /  0.0mm
20:14 54.5 °F /  12.5 °C 34.7 °F /  1.5 °C 30in /  1014.2hPa Sur 3.2mph /  5.1km/h 7mph /  11.3km/h 47.1% 0in /  0.0mm
20:19 54.3 °F /  12.4 °C 34.7 °F /  1.5 °C 30in /  1014.2hPa SSO 4mph /  6.5km/h 6mph /  9.7km/h 47.6% 0in /  0.0mm
20:24 54.1 °F /  12.3 °C 34.7 °F /  1.5 °C 30in /  1014.2hPa SO 3.4mph /  5.4km/h 6.2mph /  10km/h 47.5% 0in /  0.0mm
20:29 54.3 °F /  12.4 °C 34.9 °F /  1.6 °C 30in /  1014.2hPa SSO 2.9mph /  4.7km/h 6mph /  9.7km/h 47.9% 0in /  0.0mm
20:34 54.1 °F /  12.3 °C 34.9 °F /  1.6 °C 30in /  1014.2hPa SSO 3mph /  4.8km/h 5mph /  8km/h 48% 0in /  0.0mm
20:39 54.1 °F /  12.3 °C 34.9 °F /  1.6 °C 30in /  1014.3hPa SSO 3.1mph /  5km/h 7.4mph /  11.9km/h 48% 0in /  0.0mm
20:44 54.1 °F /  12.3 °C 34.9 °F /  1.6 °C 30in /  1014.3hPa SO 3.4mph /  5.5km/h 7mph /  11.3km/h 48% 0in /  0.0mm
20:49 54.1 °F /  12.3 °C 34.9 °F /  1.6 °C 30in /  1014.3hPa SO 3.6mph /  5.8km/h 7mph /  11.3km/h 48% 0in /  0.0mm
20:54 54.1 °F /  12.3 °C 34.9 °F /  1.6 °C 30in /  1014.4hPa SSO 3.9mph /  6.2km/h 7mph /  11.3km/h 48% 0in /  0.0mm
20:59 54.1 °F /  12.3 °C 34.9 °F /  1.6 °C 30in /  1014.4hPa SO 4mph /  6.5km/h 6mph /  9.7km/h 48% 0in /  0.0mm
21:04 54.1 °F /  12.3 °C 34.9 °F /  1.6 °C 30in /  1014.4hPa SSO 3.5mph /  5.6km/h 6.9mph /  11.1km/h 48% 0in /  0.0mm
21:09 54.1 °F /  12.3 °C 34.9 °F /  1.6 °C 30in /  1014.4hPa Sur 3.1mph /  5km/h 7mph /  11.3km/h 48% 0in /  0.0mm
21:14 54.1 °F /  12.3 °C 34.9 °F /  1.6 °C 30in /  1014.4hPa SSO 3.6mph /  5.8km/h 6.4mph /  10.3km/h 48% 0in /  0.0mm
21:19 54.1 °F /  12.3 °C 34.9 °F /  1.6 °C 30in /  1014.4hPa SO 4mph /  6.5km/h 8.7mph /  14km/h 48% 0in /  0.0mm
21:24 54.3 °F /  12.4 °C 35.1 °F /  1.7 °C 30in /  1014.5hPa SO 4mph /  6.5km/h 9mph /  14.5km/h 48% 0in /  0.0mm
21:29 54.1 °F /  12.3 °C 35.2 °F /  1.8 °C 30in /  1014.5hPa SO 4mph /  6.5km/h 10.4mph /  16.7km/h 48.6% 0in /  0.0mm
21:34 54 °F /  12.2 °C 35.2 °F /  1.8 °C 30in /  1014.5hPa SO 4.4mph /  7.1km/h 10mph /  16.1km/h 49% 0in /  0.0mm
21:39 54 °F /  12.2 °C 35.4 °F /  1.9 °C 30in /  1014.6hPa OSO 4.7mph /  7.6km/h 7mph /  11.3km/h 49.6% 0in /  0.0mm
21:44 53.8 °F /  12.1 °C 35.6 °F /  2 °C 30in /  1014.6hPa OSO 4mph /  6.5km/h 6.2mph /  10km/h 50% 0in /  0.0mm
21:49 53.6 °F /  12 °C 35.4 °F /  1.9 °C 30in /  1014.6hPa Oeste 3.6mph /  5.8km/h 6mph /  9.7km/h 50.2% 0in /  0.0mm
21:54 53.4 °F /  11.9 °C 35.6 °F /  2 °C 30in /  1014.8hPa OSO 3.3mph /  5.3km/h 6.2mph /  10km/h 51% 0in /  0.0mm
21:59 53.1 °F /  11.7 °C 36 °F /  2.2 °C 30in /  1014.8hPa OSO 3.1mph /  5km/h 6mph /  9.7km/h 51.9% 0in /  0.0mm
22:04 52.9 °F /  11.6 °C 35.8 °F /  2.1 °C 30in /  1014.8hPa Oeste 3mph /  4.8km/h 5mph /  8km/h 52.2% 0in /  0.0mm
22:09 52.9 °F /  11.6 °C 36.1 °F /  2.3 °C 30in /  1014.9hPa Oeste 2.9mph /  4.7km/h 5.2mph /  8.4km/h 52.9% 0in /  0.0mm
22:14 52.5 °F /  11.4 °C 36 °F /  2.2 °C 30in /  1014.9hPa Oeste 2.9mph /  4.7km/h 5.4mph /  8.7km/h 53% 0in /  0.0mm
22:19 52.3 °F /  11.3 °C 36.1 °F /  2.3 °C 30in /  1014.9hPa Oeste 2.9mph /  4.7km/h 6mph /  9.7km/h 53.7% 0in /  0.0mm
22:24 52.2 °F /  11.2 °C 36.1 °F /  2.3 °C 30in /  1015.1hPa Oeste 2.9mph /  4.7km/h 5.2mph /  8.4km/h 54% 0in /  0.0mm
22:29 52.2 °F /  11.2 °C 36.1 °F /  2.3 °C 30in /  1015.1hPa Oeste 2.9mph /  4.7km/h 5mph /  8km/h 54.3% 0in /  0.0mm
22:34 52 °F /  11.1 °C 36.1 °F /  2.3 °C 30in /  1015.1hPa Oeste 2.6mph /  4.2km/h 5mph /  8km/h 54.8% 0in /  0.0mm
22:39 51.8 °F /  11 °C 36.1 °F /  2.3 °C 30in /  1015.3hPa ONO 2.4mph /  3.9km/h 5mph /  8km/h 55% 0in /  0.0mm
22:44 51.6 °F /  10.9 °C 36.1 °F /  2.3 °C 30in /  1015.3hPa Oeste 2.4mph /  3.9km/h 5mph /  8km/h 55.2% 0in /  0.0mm
22:49 51.4 °F /  10.8 °C 36.5 °F /  2.5 °C 30in /  1015.3hPa Oeste 2.4mph /  3.9km/h 5mph /  8km/h 56.3% 0in /  0.0mm
22:54 51.3 °F /  10.7 °C 36.9 °F /  2.7 °C 30in /  1015.6hPa SO 1.9mph /  3km/h 5.2mph /  8.4km/h 57.8% 0in /  0.0mm
22:59 50.7 °F /  10.4 °C 36.7 °F /  2.6 °C 30in /  1015.6hPa SSE 1.4mph /  2.2km/h 6.2mph /  10km/h 58.7% 0in /  0.0mm
23:04 50.4 °F /  10.2 °C 36.5 °F /  2.5 °C 30in /  1015.6hPa Sur 3mph /  4.8km/h 6mph /  9.7km/h 59.1% 0in /  0.0mm
23:09 50.2 °F /  10.1 °C 36.7 °F /  2.6 °C 30in /  1015.8hPa SSE 4mph /  6.5km/h 6.9mph /  11.1km/h 60% 0in /  0.0mm
23:14 49.8 °F /  9.9 °C 36.5 °F /  2.5 °C 30in /  1015.8hPa Sur 4mph /  6.5km/h 7mph /  11.3km/h 60% 0in /  0.0mm
23:19 49.6 °F /  9.8 °C 36.3 °F /  2.4 °C 30in /  1015.8hPa Sur 4mph /  6.5km/h 6.9mph /  11.1km/h 60% 0in /  0.0mm
23:24 50 °F /  10 °C 36.7 °F /  2.6 °C 30in /  1015.8hPa Sur 3.8mph /  6.1km/h 7mph /  11.3km/h 60% 0in /  0.0mm
23:29 50.2 °F /  10.1 °C 36.7 °F /  2.6 °C 30in /  1015.8hPa SO 3.6mph /  5.8km/h 9.2mph /  14.8km/h 59.7% 0in /  0.0mm
23:34 50.5 °F /  10.3 °C 36.7 °F /  2.6 °C 30in /  1015.8hPa SSO 4mph /  6.4km/h 9mph /  14.5km/h 58.7% 0in /  0.0mm
23:35 50.9 °F /  10.5 °C 36.7 °F /  2.6 °C 30in /  1015.8hPa SSO 4.3mph /  7km/h 8.1mph /  13km/h 58% 0in /  0.0mm
23:44 51.1 °F /  10.6 °C 36.9 °F /  2.7 °C 30in /  1016.0hPa Oeste 5.2mph /  8.4km/h 9.7mph /  15.6km/h 58% 0in /  0.0mm
23:49 51.1 °F /  10.6 °C 36.9 °F /  2.7 °C 30in /  1016.0hPa SO 5.2mph /  8.4km/h 10.4mph /  16.7km/h 58% 0in /  0.0mm
23:54 51.1 °F /  10.6 °C 36.7 °F /  2.6 °C 30in /  1016.1hPa OSO 5.2mph /  8.4km/h 10.4mph /  16.7km/h 58.1% 0in /  0.0mm
23:59 50.7 °F /  10.4 °C 36.9 °F /  2.7 °C 30in /  1016.1hPa OSO 5.2mph /  8.4km/h 8mph /  12.9km/h 59% 0in /  0.0mm
Murcia-Puente Tocinos, España
Compliments of Weather Underground - 2.5 mb

La estación de MeteoMurcia.com, publica sus datos en los siguientes proyectos:

Weather Underground PWS IMURCIAP2 Meteoclimatic www.awekas.at

W3Counter
Web Analytics